createdAt,value
2023-02-24T06:31:18.945Z,25.00
2023-02-24T06:33:46.229Z,26.15
2023-02-24T06:36:14.460Z,24.63
2023-02-24T06:38:41.909Z,28.02
2023-02-24T06:41:12.037Z,23.45
2023-02-24T06:43:44.622Z,26.00
2023-02-24T06:46:14.016Z,26.13
2023-02-24T06:48:41.828Z,25.90
2023-02-24T06:51:13.616Z,27.67
2023-02-24T06:53:43.280Z,26.33
2023-02-24T06:56:15.153Z,27.25
2023-02-24T06:58:44.956Z,25.67
2023-02-24T07:01:18.181Z,25.65
2023-02-24T07:04:05.272Z,23.92
2023-02-24T07:06:38.364Z,26.13
2023-02-24T07:09:08.631Z,26.45
2023-02-24T07:11:42.293Z,23.40
2023-02-24T07:14:11.330Z,25.20
2023-02-24T07:16:41.623Z,24.70
2023-02-24T07:19:13.901Z,24.42
2023-02-24T07:21:50.232Z,26.92
2023-02-24T07:24:24.916Z,26.33
2023-02-24T07:27:00.637Z,29.20
2023-02-24T07:29:30.276Z,28.77
2023-02-24T07:32:03.687Z,25.73
2023-02-24T07:34:33.662Z,27.45
2023-02-24T07:37:07.810Z,25.95
2023-02-24T07:39:37.225Z,29.30
2023-02-24T07:42:05.410Z,27.35
2023-02-24T07:44:33.142Z,27.40
2023-02-24T07:47:00.545Z,26.98
2023-02-24T07:49:30.175Z,27.55
2023-02-24T07:51:58.100Z,22.83
2023-02-24T07:54:30.019Z,20.95
2023-02-24T07:56:59.228Z,21.95
2023-02-24T07:59:35.210Z,23.52
2023-02-24T08:02:05.246Z,22.77
2023-02-24T08:04:33.489Z,21.70
2023-02-24T08:07:03.630Z,21.30
2023-02-24T08:09:46.040Z,19.38
2023-02-24T08:12:21.145Z,19.40
2023-02-24T08:14:51.614Z,20.15
2023-02-24T08:17:26.496Z,17.23
2023-02-24T08:20:13.994Z,20.27
2023-02-24T08:22:51.958Z,21.15
2023-02-24T08:25:22.687Z,22.05
2023-02-24T08:28:07.862Z,19.77
2023-02-24T08:30:39.942Z,17.95
2023-02-24T08:33:09.976Z,19.70
2023-02-24T08:35:44.630Z,18.80
2023-02-24T08:38:17.878Z,19.95
2023-02-24T08:40:50.914Z,19.63
2023-02-24T08:43:31.046Z,21.27
2023-02-24T08:46:21.152Z,21.05
2023-02-24T08:48:55.442Z,19.75
2023-02-24T08:51:34.983Z,21.73
2023-02-24T08:54:15.365Z,19.65
2023-02-24T08:56:55.768Z,21.10
2023-02-24T08:59:37.408Z,20.42
2023-02-24T09:02:19.175Z,20.25
2023-02-24T09:04:51.699Z,21.70
2023-02-24T09:07:35.455Z,20.75
2023-02-24T09:10:05.783Z,20.30
2023-02-24T09:12:33.005Z,20.05
2023-02-24T09:15:04.814Z,22.00
2023-02-24T09:17:49.664Z,20.23
2023-02-24T09:20:38.817Z,20.60
2023-02-24T09:23:07.708Z,22.63
2023-02-24T09:25:49.754Z,22.00
2023-02-24T09:28:19.927Z,18.40
2023-02-24T09:30:55.316Z,21.13
2023-02-24T09:33:29.820Z,22.30
2023-02-24T09:36:09.728Z,19.05
2023-02-24T09:39:01.335Z,21.15
2023-02-24T09:41:54.404Z,21.85
2023-02-24T09:44:37.369Z,20.98
2023-02-24T09:47:42.184Z,23.25
2023-02-24T09:50:40.705Z,25.25
2023-02-24T09:53:17.595Z,23.42
2023-02-24T09:56:04.942Z,25.65
2023-02-24T09:58:50.426Z,27.15
2023-02-24T10:01:42.806Z,27.40
2023-02-24T10:04:32.015Z,29.38
2023-02-24T10:07:17.537Z,24.63
2023-02-24T10:10:19.648Z,27.02
2023-02-24T10:12:52.593Z,26.23
2023-02-24T10:15:47.160Z,27.95
2023-02-24T10:19:01.086Z,27.00
2023-02-24T10:22:00.289Z,27.25
2023-02-24T10:24:47.357Z,26.50
2023-02-24T10:27:23.820Z,26.02
2023-02-24T10:30:19.652Z,25.48
2023-02-24T10:32:47.194Z,23.85
2023-02-24T10:35:17.107Z,23.27
2023-02-24T10:37:44.640Z,25.50
2023-02-24T10:40:24.739Z,26.60
2023-02-24T10:43:03.808Z,25.58
2023-02-24T10:45:34.805Z,26.77
2023-02-24T10:48:07.518Z,25.80
2023-02-24T10:50:55.321Z,25.52
2023-02-24T10:53:37.734Z,24.42
2023-02-24T10:56:26.451Z,24.42
2023-02-24T10:59:24.825Z,25.88
2023-02-24T11:02:06.453Z,22.50
2023-02-24T11:05:04.663Z,25.90
2023-02-24T11:07:45.241Z,23.17
2023-02-24T11:10:13.998Z,23.48
2023-02-24T11:13:09.966Z,26.25
2023-02-24T11:16:04.525Z,22.98
2023-02-24T11:18:32.495Z,23.55
2023-02-24T11:21:01.185Z,24.83
2023-02-24T11:23:35.161Z,21.30
2023-02-24T11:26:16.914Z,22.25
2023-02-24T11:28:57.365Z,22.02
2023-02-24T11:31:47.313Z,24.10
2023-02-24T11:34:37.321Z,21.50
2023-02-24T11:37:30.863Z,21.65
2023-02-24T11:40:13.579Z,21.38
2023-02-24T11:42:53.321Z,21.48
2023-02-24T11:45:35.274Z,21.77
2023-02-24T11:48:27.455Z,20.55
2023-02-24T11:51:10.523Z,20.33
2023-02-24T11:53:59.297Z,16.92
2023-02-24T11:56:46.999Z,18.60
2023-02-24T11:59:38.628Z,20.48
2023-02-24T12:02:38.627Z,33.75
2023-02-24T12:05:18.719Z,21.67
2023-02-24T12:07:53.846Z,19.95
2023-02-24T12:10:28.230Z,18.73
2023-02-24T12:13:04.355Z,19.33
2023-02-24T12:15:54.718Z,18.48
2023-02-24T12:18:52.399Z,19.63
2023-02-24T12:21:33.819Z,20.98
2023-02-24T12:24:02.256Z,17.42
2023-02-24T12:27:13.152Z,20.55
2023-02-24T12:30:34.113Z,16.33
2023-02-24T12:33:19.842Z,17.10
2023-02-24T12:35:50.868Z,17.33
2023-02-24T12:38:46.713Z,17.05
2023-02-24T12:41:30.724Z,17.67
2023-02-24T12:44:17.745Z,17.45
2023-02-24T12:46:49.376Z,13.63
2023-02-24T12:50:06.775Z,12.98
2023-02-24T12:52:58.792Z,14.68
2023-02-24T12:55:50.108Z,12.18
2023-02-24T12:58:21.968Z,14.25
2023-02-24T13:00:52.030Z,12.73
2023-02-24T13:03:40.196Z,12.70
2023-02-24T13:06:30.566Z,11.65
2023-02-24T13:09:23.108Z,11.48
2023-02-24T13:12:06.006Z,11.50
2023-02-24T13:14:36.601Z,14.32
2023-02-24T13:17:20.828Z,13.48
2023-02-24T13:19:49.625Z,14.57
2023-02-24T13:22:17.871Z,13.65
2023-02-24T13:24:54.237Z,12.68
2023-02-24T13:27:24.800Z,14.18
2023-02-24T13:30:18.366Z,14.10
2023-02-24T13:32:47.634Z,13.00
2023-02-24T13:35:14.834Z,12.35
2023-02-24T13:37:45.180Z,13.80
2023-02-24T13:40:17.958Z,14.75
2023-02-24T13:42:57.137Z,12.35
2023-02-24T13:45:26.342Z,13.75
2023-02-24T13:48:30.042Z,13.60
2023-02-24T13:53:58.887Z,12.27
2023-02-24T13:56:48.433Z,11.00
2023-02-24T13:59:24.764Z,12.60
2023-02-24T14:02:14.298Z,11.55
2023-02-24T14:04:51.193Z,11.43
2023-02-24T14:07:23.445Z,12.80
2023-02-24T14:10:01.136Z,13.27
2023-02-24T14:12:35.106Z,13.32
2023-02-24T14:15:04.186Z,13.13
2023-02-24T14:17:35.853Z,13.68
2023-02-24T14:20:20.363Z,14.35
2023-02-24T14:22:56.363Z,13.40
2023-02-24T14:25:24.218Z,13.85
2023-02-24T14:27:53.704Z,14.40
2023-02-24T14:30:39.277Z,13.88
2023-02-24T14:33:08.329Z,15.90
2023-02-24T14:35:37.107Z,15.25
2023-02-24T14:38:05.923Z,15.85
2023-02-24T14:40:33.617Z,16.48
2023-02-24T14:43:00.855Z,16.08
2023-02-24T14:45:29.113Z,17.08
2023-02-24T14:47:57.003Z,16.20
2023-02-24T14:50:36.453Z,17.27
2023-02-24T14:53:14.075Z,16.50
2023-02-24T14:55:46.878Z,17.42
2023-02-24T14:58:26.330Z,17.17
2023-02-24T15:00:58.794Z,16.33
2023-02-24T15:03:46.387Z,15.45
2023-02-24T15:06:24.988Z,17.77
2023-02-24T15:09:02.472Z,16.20
2023-02-24T15:11:32.336Z,16.17
2023-02-24T15:14:16.161Z,17.55
2023-02-24T15:16:47.247Z,17.38
2023-02-24T15:19:28.974Z,16.75
2023-02-24T15:21:56.550Z,16.63
2023-02-24T15:24:32.342Z,17.13
2023-02-24T15:27:01.623Z,16.52
2023-02-24T15:29:31.254Z,17.33
2023-02-24T15:32:00.861Z,17.98
2023-02-24T15:34:31.987Z,17.17
2023-02-24T15:37:04.390Z,18.27
2023-02-24T15:39:34.228Z,16.63
2023-02-24T15:42:16.632Z,15.68
2023-02-24T15:45:05.582Z,15.75
2023-02-24T15:47:46.272Z,15.13
2023-02-24T15:50:14.255Z,16.55
2023-02-24T15:52:41.914Z,15.15
2023-02-24T15:55:14.491Z,16.67
2023-02-24T15:57:42.090Z,14.50
2023-02-24T16:00:13.259Z,16.13
2023-02-24T16:02:41.790Z,14.73
2023-02-24T16:05:13.453Z,15.10
2023-02-24T16:07:42.933Z,14.57
2023-02-24T16:10:25.377Z,14.57
2023-02-24T16:12:56.342Z,14.55
2023-02-24T16:15:33.757Z,16.52
2023-02-24T16:18:04.276Z,13.60
2023-02-24T16:20:31.991Z,13.30
2023-02-24T16:23:04.423Z,14.77
2023-02-24T16:25:43.621Z,14.50
2023-02-24T16:28:15.705Z,14.65
2023-02-24T16:30:44.371Z,15.33
2023-02-24T16:33:13.485Z,14.48
2023-02-24T16:35:42.976Z,14.63
2023-02-24T16:38:15.211Z,14.50
2023-02-24T16:40:45.232Z,14.45
2023-02-24T16:43:15.899Z,13.88
2023-02-24T16:45:45.148Z,16.90
2023-02-24T16:48:21.100Z,16.20
2023-02-24T16:50:49.207Z,15.13
2023-02-24T16:53:22.850Z,15.40
2023-02-24T16:55:50.549Z,15.98
2023-02-24T16:58:19.094Z,15.55
